Time;durP1;ratioP1;P1;durP2;ratioP2;P2;SDS_P1;SDS_P2;PMS_P1;PMS_P2;Temp;Humidity;BMP_temperature;BMP_pressure;BME280_temperature;BME280_humidity;BME280_pressure;Samples;Min_cycle;Max_cycle;Signal;HPM_P1;HPM_P2
2023/11/30 00:01:05;;;;;;;29.13;19.60;;;;;;;-1.16;100.00;100134.06;5046250;28;20435;-73
2023/11/30 00:03:30;;;;;;;31.80;20.45;;;;;;;-1.19;100.00;100133.03;5043304;28;20033;-71
2023/11/30 00:05:56;;;;;;;32.67;22.38;;;;;;;-1.17;100.00;100134.88;5045567;28;20120;-74
2023/11/30 00:08:21;;;;;;;33.67;22.60;;;;;;;-1.16;100.00;100136.66;5044041;28;20057;-75
2023/11/30 00:10:46;;;;;;;32.20;21.10;;;;;;;-1.16;100.00;100126.28;5044667;28;20033;-74
2023/11/30 00:13:12;;;;;;;31.17;21.20;;;;;;;-1.14;100.00;100131.53;5043866;28;20025;-73
2023/11/30 00:15:37;;;;;;;30.75;21.05;;;;;;;-1.11;100.00;100135.09;5041902;28;20099;-74
2023/11/30 00:18:02;;;;;;;31.70;21.98;;;;;;;-1.15;100.00;100130.66;5046038;28;20045;-74
2023/11/30 00:20:28;;;;;;;32.42;21.65;;;;;;;-1.19;100.00;100127.84;5042688;28;20061;-73
2023/11/30 00:22:53;;;;;;;33.78;23.00;;;;;;;-1.17;100.00;100127.09;5044239;28;20076;-73
2023/11/30 00:25:18;;;;;;;32.72;23.10;;;;;;;-1.19;100.00;100118.38;5043842;28;20056;-74
2023/11/30 00:27:44;;;;;;;34.53;24.08;;;;;;;-1.21;100.00;100107.03;5043931;28;20092;-73
2023/11/30 00:30:10;;;;;;;34.40;23.77;;;;;;;-1.18;100.00;100108.88;5045340;28;20032;-73
2023/11/30 00:32:36;;;;;;;33.08;22.17;;;;;;;-1.19;100.00;100108.00;5042472;28;20112;-73
2023/11/30 00:35:02;;;;;;;33.00;23.10;;;;;;;-1.22;100.00;100107.88;5045698;28;20365;-75
2023/11/30 00:37:27;;;;;;;32.47;22.40;;;;;;;-1.24;100.00;100101.72;5042635;28;20029;-74
2023/11/30 00:39:53;;;;;;;35.33;23.88;;;;;;;-1.24;100.00;100100.03;5044656;28;20030;-74
2023/11/30 00:42:18;;;;;;;34.50;25.27;;;;;;;-1.23;100.00;100103.50;5042734;28;20033;-73
2023/11/30 00:44:43;;;;;;;36.80;26.92;;;;;;;-1.21;100.00;100099.25;5043287;28;20029;-74
2023/11/30 00:47:09;;;;;;;35.03;25.67;;;;;;;-1.19;100.00;100101.91;5044364;28;20107;-74
2023/11/30 00:49:34;;;;;;;37.90;27.33;;;;;;;-1.18;100.00;100096.81;5042198;28;20036;-73
2023/11/30 00:51:59;;;;;;;37.40;27.55;;;;;;;-1.15;100.00;100088.25;5038119;28;20037;-73
2023/11/30 00:54:25;;;;;;;39.67;29.70;;;;;;;-1.11;100.00;100085.81;5044697;28;20021;-73
2023/11/30 00:56:50;;;;;;;41.58;29.80;;;;;;;-1.08;100.00;100087.66;5042175;28;20035;-73
2023/11/30 00:59:15;;;;;;;39.65;29.45;;;;;;;-1.08;100.00;100085.06;5043253;28;20125;-73
2023/11/30 01:01:41;;;;;;;40.22;29.85;;;;;;;-1.09;100.00;100083.31;5044345;28;20029;-73
2023/11/30 01:04:06;;;;;;;43.10;31.50;;;;;;;-1.04;100.00;100081.75;5041830;28;20029;-74
2023/11/30 01:06:31;;;;;;;43.47;31.27;;;;;;;-1.01;100.00;100081.00;5045150;28;20031;-74
2023/11/30 01:08:57;;;;;;;43.53;31.50;;;;;;;-1.05;100.00;100074.81;5041988;28;20036;-74
2023/11/30 01:11:22;;;;;;;43.67;31.42;;;;;;;-1.04;100.00;100073.97;5044269;28;20038;-74
2023/11/30 01:13:47;;;;;;;42.95;31.33;;;;;;;-1.03;100.00;100080.94;5043184;28;20025;-73
2023/11/30 01:16:13;;;;;;;41.17;30.17;;;;;;;-1.05;100.00;100080.00;5042643;28;20024;-73
2023/11/30 01:18:38;;;;;;;40.40;29.20;;;;;;;-1.09;100.00;100083.31;5044591;28;20029;-74
2023/11/30 01:21:04;;;;;;;39.25;29.42;;;;;;;-1.11;100.00;100079.75;5041440;28;20033;-74
2023/11/30 01:23:29;;;;;;;40.30;29.48;;;;;;;-1.12;100.00;100073.69;5043611;28;20033;-73
2023/11/30 01:25:55;;;;;;;40.22;29.75;;;;;;;-1.15;100.00;100073.56;5042021;28;20500;-71
2023/11/30 01:28:20;;;;;;;42.10;30.92;;;;;;;-1.19;100.00;100079.47;5043298;28;20494;-72
2023/11/30 01:30:45;;;;;;;42.05;30.77;;;;;;;-1.17;100.00;100070.03;5043732;28;20528;-71
2023/11/30 01:33:11;;;;;;;42.63;31.45;;;;;;;-1.16;100.00;100076.13;5041911;28;20489;-71
2023/11/30 01:35:36;;;;;;;41.95;31.23;;;;;;;-1.19;100.00;100071.69;5044437;28;20033;-72
2023/11/30 01:38:02;;;;;;;43.65;32.15;;;;;;;-1.19;100.00;100070.78;5041338;28;20064;-72
2023/11/30 01:40:27;;;;;;;44.35;32.05;;;;;;;-1.17;100.00;100074.34;5044098;28;20135;-72
2023/11/30 01:42:52;;;;;;;44.67;32.10;;;;;;;-1.18;100.00;100080.34;5042054;28;20036;-73
2023/11/30 01:45:18;;;;;;;44.83;32.67;;;;;;;-1.19;100.00;100071.69;5042837;28;20069;-72
2023/11/30 01:47:44;;;;;;;43.65;31.77;;;;;;;-1.18;100.00;100068.28;5043282;28;20040;-72
2023/11/30 01:50:09;;;;;;;45.75;32.80;;;;;;;-1.20;100.00;100077.69;5041488;28;20105;-74
2023/11/30 01:52:35;;;;;;;44.58;32.67;;;;;;;-1.17;100.00;100067.44;5044566;28;20033;-72
2023/11/30 01:55:01;;;;;;;43.65;31.85;;;;;;;-1.17;100.00;100067.44;5036876;28;20029;-72
2023/11/30 01:57:28;;;;;;;43.45;30.77;;;;;;;-1.19;100.00;100066.50;5043925;28;20388;-71
2023/11/30 01:59:54;;;;;;;43.15;30.90;;;;;;;-1.23;100.00;100059.41;5041909;28;20029;-70
2023/11/30 02:02:20;;;;;;;42.42;31.23;;;;;;;-1.19;100.00;100066.50;5042676;28;20032;-72
2023/11/30 02:04:51;;;;;;;42.95;31.58;;;;;;;-1.24;100.00;100063.72;5042863;28;20500;-75
2023/11/30 02:07:16;;;;;;;44.28;31.73;;;;;;;-1.24;100.00;100058.53;5042453;28;20469;-73
2023/11/30 02:09:42;;;;;;;42.17;30.88;;;;;;;-1.26;100.00;100059.28;5043265;28;20082;-73
2023/11/30 02:12:07;;;;;;;41.45;30.45;;;;;;;-1.22;100.00;100063.78;5041190;28;20075;-75
2023/11/30 02:14:34;;;;;;;43.42;31.30;;;;;;;-1.23;100.00;100065.47;5044061;28;20021;-74
2023/11/30 02:16:59;;;;;;;46.35;33.40;;;;;;;-1.20;100.00;100059.53;5040743;28;20575;-74
2023/11/30 02:19:25;;;;;;;45.60;34.00;;;;;;;-1.23;100.00;100062.88;5042185;28;20042;-73
2023/11/30 02:21:51;;;;;;;46.05;33.97;;;;;;;-1.20;100.00;100058.66;5041968;28;20059;-73
2023/11/30 02:24:16;;;;;;;47.88;34.83;;;;;;;-1.21;100.00;100051.69;5041982;28;20417;-73
2023/11/30 02:26:42;;;;;;;47.55;35.67;;;;;;;-1.22;100.00;100053.41;5043284;28;20036;-73
2023/11/30 02:29:07;;;;;;;48.55;35.60;;;;;;;-1.24;100.00;100055.03;5040742;28;20452;-74
2023/11/30 02:31:32;;;;;;;49.78;36.60;;;;;;;-1.25;100.00;100061.94;5043936;28;20049;-73
2023/11/30 02:33:58;;;;;;;48.25;35.78;;;;;;;-1.26;100.00;100056.69;5041011;28;20045;-74
2023/11/30 02:36:23;;;;;;;47.30;35.67;;;;;;;-1.30;100.00;100049.63;5042906;28;20369;-73
2023/11/30 02:38:48;;;;;;;49.60;36.78;;;;;;;-1.31;100.00;100055.63;5042073;28;20431;-74
2023/11/30 02:41:16;;;;;;;49.30;36.17;;;;;;;-1.31;100.00;100045.25;5041787;28;20030;-74
2023/11/30 02:43:41;;;;;;;47.42;35.90;;;;;;;-1.29;100.00;100048.81;5043085;28;20472;-73
2023/11/30 02:46:08;;;;;;;48.10;36.90;;;;;;;-1.28;100.00;100047.97;5040334;28;20048;-73
2023/11/30 02:48:35;;;;;;;48.88;36.50;;;;;;;-1.27;100.00;100049.75;5044255;28;20427;-69
2023/11/30 02:51:00;;;;;;;50.00;37.28;;;;;;;-1.26;100.00;100049.78;5040405;28;20535;-66
2023/11/30 02:53:26;;;;;;;49.10;35.65;;;;;;;-1.33;100.00;100047.78;5043125;28;20076;-67
2023/11/30 02:55:51;;;;;;;49.10;36.85;;;;;;;-1.31;100.00;100038.38;5041826;28;20021;-66
2023/11/30 02:58:16;;;;;;;50.03;36.88;;;;;;;-1.31;100.00;100045.25;5041647;28;20025;-67
2023/11/30 03:00:42;;;;;;;49.33;36.65;;;;;;;-1.33;100.00;100033.94;5043103;28;20032;-67
2023/11/30 03:03:07;;;;;;;49.72;36.67;;;;;;;-1.36;100.00;100037.28;5040391;28;20397;-69
2023/11/30 03:05:32;;;;;;;50.05;37.30;;;;;;;-1.39;100.00;100042.34;5043394;28;20049;-67
2023/11/30 03:07:58;;;;;;;50.85;36.42;;;;;;;-1.42;100.00;100037.94;5041072;28;20033;-66
2023/11/30 03:10:23;;;;;;;51.75;37.63;;;;;;;-1.42;100.00;100037.06;5043136;28;20389;-67
2023/11/30 03:12:48;;;;;;;49.33;37.17;;;;;;;-1.44;100.00;100031.81;5045879;28;20028;-67
2023/11/30 03:15:18;;;;;;;47.33;35.97;;;;;;;-1.43;100.00;100037.88;5044894;28;20030;-66
2023/11/30 03:17:43;;;;;;;47.78;35.53;;;;;;;-1.40;100.00;100040.59;5045031;28;20029;-67
2023/11/30 03:20:09;;;;;;;50.30;37.30;;;;;;;-1.41;100.00;100047.50;5043970;28;20051;-66
2023/11/30 03:22:35;;;;;;;53.40;38.38;;;;;;;-1.44;100.00;100039.59;5047357;28;20029;-66
2023/11/30 03:25:00;;;;;;;49.40;36.15;;;;;;;-1.42;100.00;100043.13;5043693;28;20034;-75
2023/11/30 03:27:25;;;;;;;50.28;36.92;;;;;;;-1.39;100.00;100041.50;5046196;28;20034;-73
2023/11/30 03:29:51;;;;;;;52.67;38.25;;;;;;;-1.38;100.00;100043.22;5043818;28;20116;-72
2023/11/30 03:32:16;;;;;;;49.38;36.30;;;;;;;-1.39;100.00;100042.34;5044792;28;20068;-68
2023/11/30 03:34:41;;;;;;;50.15;36.25;;;;;;;-1.41;100.00;100038.84;5046031;28;20106;-68
2023/11/30 03:37:06;;;;;;;51.13;36.97;;;;;;;-1.38;100.00;100038.03;5042364;28;20064;-70
2023/11/30 03:39:32;;;;;;;54.42;38.30;;;;;;;-1.38;100.00;100033.78;5046718;28;20032;-69
2023/11/30 03:41:57;;;;;;;51.53;36.60;;;;;;;-1.43;100.00;100031.00;5044064;28;20026;-68
2023/11/30 03:44:22;;;;;;;52.40;37.15;;;;;;;-1.43;100.00;100025.81;5045576;28;20033;-72
2023/11/30 03:46:48;;;;;;;50.00;36.70;;;;;;;-1.47;100.00;100030.78;5044955;28;20502;-68
2023/11/30 03:49:13;;;;;;;49.45;36.78;;;;;;;-1.46;100.00;100028.25;5044271;28;20416;-71
2023/11/30 03:51:38;;;;;;;49.42;34.78;;;;;;;-1.51;100.00;100026.34;5046176;28;20107;-68
2023/11/30 03:54:04;;;;;;;47.53;35.42;;;;;;;-1.52;100.00;100022.84;5043242;28;20366;-70
2023/11/30 03:56:32;;;;;;;51.33;36.88;;;;;;;-1.53;100.00;100023.69;5046283;28;20538;-71
2023/11/30 03:58:58;;;;;;;50.70;36.53;;;;;;;-1.59;100.00;100013.94;5043488;28;20033;-70
2023/11/30 04:01:24;;;;;;;51.05;37.17;;;;;;;-1.58;100.00;100020.00;5045051;28;20033;-70
2023/11/30 04:03:49;;;;;;;49.38;36.13;;;;;;;-1.61;100.00;100015.56;5044855;28;20029;-69
2023/11/30 04:06:22;;;;;;;51.55;36.28;;;;;;;-1.66;100.00;100023.97;5043600;28;20129;-74
2023/11/30 04:08:52;;;;;;;47.53;35.13;;;;;;;-1.63;100.00;100024.09;5044733;28;20056;-72
2023/11/30 04:11:18;;;;;;;51.83;37.25;;;;;;;-1.66;100.00;100021.38;5044269;28;20040;-71
2023/11/30 04:13:44;;;;;;;53.50;37.40;;;;;;;-1.68;100.00;100015.28;5045437;28;20488;-70
2023/11/30 04:16:10;;;;;;;50.10;36.22;;;;;;;-1.66;100.00;100014.53;5043020;28;20029;-68
2023/11/30 04:18:36;;;;;;;51.78;36.97;;;;;;;-1.63;100.00;100016.31;5046420;28;20388;-74
2023/11/30 04:21:01;;;;;;;52.88;38.30;;;;;;;-1.64;100.00;100009.41;5042673;28;20061;-71
2023/11/30 04:23:26;;;;;;;55.70;38.28;;;;;;;-1.65;100.00;100002.44;5044077;28;20028;-69
2023/11/30 04:25:52;;;;;;;50.65;36.53;;;;;;;-1.62;100.00;100007.72;5044172;28;20485;-74
2023/11/30 04:28:17;;;;;;;52.38;38.03;;;;;;;-1.59;100.00;100005.25;5044095;28;20500;-69
2023/11/30 04:30:42;;;;;;;53.72;39.28;;;;;;;-1.58;100.00;99999.25;5045003;28;20029;-68
2023/11/30 04:33:08;;;;;;;52.67;38.20;;;;;;;-1.54;100.00;100006.34;5042647;28;20034;-72
2023/11/30 04:35:33;;;;;;;55.72;39.40;;;;;;;-1.50;100.00;100008.25;5044533;28;20032;-71
2023/11/30 04:37:58;;;;;;;54.55;38.60;;;;;;;-1.45;100.00;100017.06;5042631;28;20061;-68
2023/11/30 04:40:24;;;;;;;55.60;39.75;;;;;;;-1.43;100.00;100007.66;5044630;28;20083;-70
2023/11/30 04:42:49;;;;;;;51.30;38.13;;;;;;;-1.38;100.00;100022.50;5044131;28;20074;-67
2023/11/30 04:45:14;;;;;;;56.38;39.60;;;;;;;-1.36;100.00;100026.03;5043219;28;20468;-69
2023/11/30 04:47:40;;;;;;;54.25;39.33;;;;;;;-1.32;100.00;100023.63;5045260;28;20033;-72
2023/11/30 04:50:06;;;;;;;53.95;39.38;;;;;;;-1.25;100.00;100032.53;5041983;28;20022;-75
2023/11/30 04:52:31;;;;;;;55.20;40.05;;;;;;;-1.25;100.00;100025.63;5045520;28;20123;-70
2023/11/30 04:54:57;;;;;;;55.13;39.65;;;;;;;-1.20;100.00;100022.34;5042699;28;20037;-66
2023/11/30 04:57:22;;;;;;;57.55;40.55;;;;;;;-1.23;100.00;100016.19;5044215;28;20460;-67
2023/11/30 04:59:48;;;;;;;53.97;39.40;;;;;;;-1.22;100.00;100019.69;5043963;28;20041;-67
2023/11/30 05:02:13;;;;;;;50.22;37.58;;;;;;;-1.18;100.00;100021.59;5042535;28;20087;-67
2023/11/30 05:04:38;;;;;;;54.50;38.83;;;;;;;-1.21;100.00;100011.06;5043398;28;20049;-68
2023/11/30 05:07:04;;;;;;;54.47;39.67;;;;;;;-1.20;100.00;100007.66;5041851;28;20045;-70
2023/11/30 05:09:29;;;;;;;56.53;39.72;;;;;;;-1.20;100.00;100007.66;5044515;28;20079;-68
2023/11/30 05:11:54;;;;;;;56.13;41.25;;;;;;;-1.20;100.00;100002.47;5042641;28;20471;-70
2023/11/30 05:14:20;;;;;;;52.17;38.20;;;;;;;-1.17;100.00;100006.91;5043281;28;20033;-68
2023/11/30 05:16:45;;;;;;;49.85;37.55;;;;;;;-1.19;100.00;100004.25;5043848;28;20053;-69
2023/11/30 05:19:10;;;;;;;54.10;39.00;;;;;;;-1.20;100.00;100004.19;5041813;28;20033;-68
2023/11/30 05:21:36;;;;;;;55.17;39.22;;;;;;;-1.18;100.00;100000.84;5045016;28;20032;-70
2023/11/30 05:24:02;;;;;;;58.80;39.88;;;;;;;-1.18;100.00;99995.66;5041390;28;20032;-67
2023/11/30 05:26:27;;;;;;;57.85;40.95;;;;;;;-1.15;100.00;100003.53;5044150;28;20030;-68
2023/11/30 05:28:52;;;;;;;55.95;41.72;;;;;;;-1.14;100.00;99994.91;5042683;28;20033;-69
2023/11/30 05:31:18;;;;;;;57.55;42.10;;;;;;;-1.12;100.00;99995.88;5042539;28;20033;-69
2023/11/30 05:33:43;;;;;;;58.90;43.30;;;;;;;-1.13;100.00;99994.09;5043736;28;20074;-69
2023/11/30 05:36:09;;;;;;;57.20;42.35;;;;;;;-1.14;100.00;99988.84;5040247;28;20374;-69
2023/11/30 05:38:34;;;;;;;58.80;43.67;;;;;;;-1.15;100.00;99987.06;5044775;28;20408;-68
2023/11/30 05:40:59;;;;;;;59.78;43.97;;;;;;;-1.17;100.00;99987.00;5041641;28;20022;-67
2023/11/30 05:43:25;;;;;;;57.40;42.90;;;;;;;-1.16;100.00;99993.97;5043632;28;20108;-70
2023/11/30 05:45:50;;;;;;;58.47;43.42;;;;;;;-1.16;100.00;99990.50;5042596;28;20116;-67
2023/11/30 05:48:16;;;;;;;57.00;42.85;;;;;;;-1.17;100.00;99991.31;5042239;28;20030;-68
2023/11/30 05:50:41;;;;;;;57.20;43.22;;;;;;;-1.17;100.00;99993.91;5043897;28;20048;-69
2023/11/30 05:53:06;;;;;;;58.92;43.92;;;;;;;-1.17;100.00;99993.91;5040791;28;20140;-68
2023/11/30 05:55:32;;;;;;;58.53;42.88;;;;;;;-1.15;100.00;99993.16;5044314;28;20051;-70
2023/11/30 05:57:57;;;;;;;57.50;43.53;;;;;;;-1.14;100.00;99989.72;5041511;28;20160;-68
2023/11/30 06:00:23;;;;;;;59.80;44.17;;;;;;;-1.12;100.00;99985.50;5043041;28;20041;-72
2023/11/30 06:02:48;;;;;;;58.05;43.75;;;;;;;-1.13;100.00;99988.91;5043168;28;20174;-69
2023/11/30 06:05:13;;;;;;;58.47;44.17;;;;;;;-1.11;100.00;99992.44;5041109;28;20049;-67
2023/11/30 06:07:39;;;;;;;56.90;43.55;;;;;;;-1.11;100.00;99999.34;5044313;28;20435;-68
2023/11/30 06:10:06;;;;;;;57.65;44.83;;;;;;;-1.12;100.00;100001.06;5040686;28;20029;-68
2023/11/30 06:12:31;;;;;;;55.90;43.40;;;;;;;-1.12;100.00;100008.84;5043583;28;20041;-72
2023/11/30 06:14:57;;;;;;;57.63;44.60;;;;;;;-1.12;100.00;99995.88;5041712;28;20469;-68
2023/11/30 06:17:22;;;;;;;62.55;44.95;;;;;;;-1.14;100.00;100002.69;5042517;28;20036;-68
2023/11/30 06:19:47;;;;;;;61.75;45.70;;;;;;;-1.13;100.00;100004.47;5042847;28;20040;-69
2023/11/30 06:22:13;;;;;;;60.78;43.63;;;;;;;-1.17;100.00;100006.91;5041364;28;20034;-69
2023/11/30 06:24:38;;;;;;;57.88;42.58;;;;;;;-1.17;100.00;99999.09;5043926;28;20044;-69
2023/11/30 06:27:04;;;;;;;59.22;45.50;;;;;;;-1.13;100.00;100008.78;5040850;28;20384;-68
2023/11/30 06:29:29;;;;;;;79.50;67.78;;;;;;;-1.13;100.00;100003.59;5043587;28;20395;-68
2023/11/30 06:31:59;;;;;;;60.47;46.35;;;;;;;-1.13;100.00;100007.06;5040472;28;20029;-68
2023/11/30 06:34:25;;;;;;;60.45;45.45;;;;;;;-1.13;100.00;100004.47;5042691;28;20030;-72
2023/11/30 06:36:50;;;;;;;56.50;42.78;;;;;;;-1.11;100.00;100007.13;5042455;28;20028;-69
2023/11/30 06:39:16;;;;;;;61.05;44.38;;;;;;;-1.11;100.00;100013.19;5041430;28;20052;-69
2023/11/30 06:41:41;;;;;;;59.58;43.70;;;;;;;-1.11;100.00;100014.91;5043471;28;20036;-70
2023/11/30 06:44:06;;;;;;;60.72;44.42;;;;;;;-1.14;100.00;100013.06;5040502;28;20029;-71
2023/11/30 06:46:32;;;;;;;59.75;44.03;;;;;;;-1.18;100.00;100018.09;5045801;28;20028;-68
2023/11/30 06:48:57;;;;;;;59.25;43.88;;;;;;;-1.20;100.00;100011.97;5045201;28;20503;-68
2023/11/30 06:51:22;;;;;;;60.17;44.42;;;;;;;-1.26;100.00;100021.25;5046069;28;20388;-68
2023/11/30 06:53:47;;;;;;;60.90;44.13;;;;;;;-1.26;100.00;100029.03;5046306;28;20380;-70
2023/11/30 06:56:13;;;;;;;58.05;42.83;;;;;;;-1.27;100.00;100029.91;5043521;28;20388;-69
2023/11/30 06:58:39;;;;;;;60.85;44.22;;;;;;;-1.33;100.00;100031.34;5046306;28;20033;-68
2023/11/30 07:01:08;;;;;;;58.90;42.28;;;;;;;-1.36;100.00;100024.31;5038780;28;20038;-69
2023/11/30 07:03:34;;;;;;;64.13;45.85;;;;;;;-1.37;100.00;100024.25;5047762;28;20108;-70
2023/11/30 07:05:59;;;;;;;60.25;45.70;;;;;;;-1.37;100.00;100024.25;5044365;28;20049;-69
2023/11/30 07:08:24;;;;;;;61.60;44.72;;;;;;;-1.39;100.00;100026.81;5046036;28;20041;-72
2023/11/30 07:10:50;;;;;;;59.50;44.83;;;;;;;-1.37;100.00;100029.44;5045829;28;20057;-72
2023/11/30 07:13:16;;;;;;;66.85;50.67;;;;;;;-1.40;100.00;100027.63;5044629;28;20111;-67
2023/11/30 07:15:43;;;;;;;59.90;43.22;;;;;;;-1.38;100.00;100031.19;5046667;28;20044;-70
2023/11/30 07:18:08;;;;;;;62.03;44.15;;;;;;;-1.43;100.00;100024.91;5043962;28;20036;-72
2023/11/30 07:20:34;;;;;;;68.13;47.05;;;;;;;-1.48;100.00;100027.31;5047064;28;20033;-68
2023/11/30 07:22:59;;;;;;;61.30;45.50;;;;;;;-1.50;100.00;100028.97;5044190;28;20037;-68
2023/11/30 07:25:25;;;;;;;62.30;46.00;;;;;;;-1.52;100.00;100025.44;5045869;28;20033;-69
2023/11/30 07:27:53;;;;;;;62.25;46.38;;;;;;;-1.56;100.00;100023.53;5045394;28;20029;-69
2023/11/30 07:30:19;;;;;;;60.10;46.75;;;;;;;-1.58;100.00;100028.66;5044776;28;20044;-69
2023/11/30 07:32:44;;;;;;;74.68;57.08;;;;;;;-1.62;100.00;100028.47;5046418;28;20380;-69
2023/11/30 07:35:09;;;;;;;68.85;49.85;;;;;;;-1.66;100.00;100032.66;5042168;28;20409;-73
2023/11/30 07:37:35;;;;;;;65.38;47.90;;;;;;;-1.68;100.00;100029.09;5045480;28;20032;-72
2023/11/30 07:40:00;;;;;;;70.82;52.38;;;;;;;-1.66;100.00;100026.56;5044551;28;20034;-69
2023/11/30 07:42:26;;;;;;;73.70;53.92;;;;;;;-1.67;100.00;100030.00;5045827;28;20377;-67
2023/11/30 07:44:51;;;;;;;67.88;51.97;;;;;;;-1.65;100.00;100028.34;5045080;28;20029;-68
2023/11/30 07:47:18;;;;;;;68.30;51.10;;;;;;;-1.59;100.00;100038.97;5044283;28;20064;-69
2023/11/30 07:49:44;;;;;;;70.18;52.58;;;;;;;-1.51;100.00;100042.75;5046185;28;20033;-69
2023/11/30 07:52:09;;;;;;;69.35;50.88;;;;;;;-1.40;100.00;100050.94;5043277;28;20095;-69
2023/11/30 07:54:35;;;;;;;70.90;51.45;;;;;;;-1.34;100.00;100045.13;5034519;28;20542;-66
2023/11/30 07:57:00;;;;;;;80.70;54.90;;;;;;;-1.33;100.00;100042.59;5045020;28;20035;-66
2023/11/30 07:59:25;;;;;;;68.93;51.72;;;;;;;-1.25;100.00;100045.50;5044873;28;20068;-67
2023/11/30 08:01:51;;;;;;;69.28;50.65;;;;;;;-1.17;100.00;100049.28;5039355;28;20444;-76
2023/11/30 08:04:16;;;;;;;68.40;50.13;;;;;;;-1.08;100.00;100049.66;5036468;28;20370;-73
2023/11/30 08:06:42;;;;;;;69.78;50.30;;;;;;;-1.02;100.00;100035.13;5039985;28;20479;-74
2023/11/30 08:09:08;;;;;;;68.95;49.97;;;;;;;-0.93;100.00;100038.09;5043916;28;20094;-73
2023/11/30 08:11:33;;;;;;;76.53;53.53;;;;;;;-0.81;100.00;100043.72;5045606;28;20025;-75
2023/11/30 08:13:59;;;;;;;80.60;56.97;;;;;;;-0.68;100.00;100039.88;5036140;28;20132;-67
2023/11/30 08:16:24;;;;;;;82.40;58.20;;;;;;;-0.49;100.00;100043.16;5036371;28;20029;-74
2023/11/30 08:18:50;;;;;;;83.63;60.35;;;;;;;-0.34;100.00;100046.28;5036735;28;20043;-75
2023/11/30 08:21:15;;;;;;;81.63;59.05;;;;;;;-0.15;100.00;100042.63;5034607;28;20059;-73
2023/11/30 08:23:42;;;;;;;91.78;65.47;;;;;;;-0.21;100.00;100042.41;5042323;28;20112;-65
2023/11/30 08:26:07;;;;;;;76.65;56.05;;;;;;;-0.21;100.00;100039.81;5038698;28;20491;-65
2023/11/30 08:28:33;;;;;;;75.65;55.13;;;;;;;-0.19;100.00;100040.72;5043849;28;20029;-65
2023/11/30 08:31:01;;;;;;;72.32;53.25;;;;;;;-0.22;100.00;100040.63;5043599;28;20064;-68
2023/11/30 08:33:27;;;;;;;71.88;51.13;;;;;;;-0.21;100.00;100047.59;5044478;28;20051;-71
2023/11/30 08:35:53;;;;;;;69.40;50.17;;;;;;;-0.25;100.00;100041.44;5044155;28;20029;-72
2023/11/30 08:38:18;;;;;;;68.40;50.40;;;;;;;-0.28;100.00;100043.03;5043115;28;20048;-72
2023/11/30 08:40:44;;;;;;;63.92;49.47;;;;;;;-0.30;100.00;100042.97;5045536;28;20447;-70
2023/11/30 08:43:09;;;;;;;63.65;48.78;;;;;;;-0.34;100.00;100043.69;5042208;28;20115;-73
2023/11/30 08:45:34;;;;;;;62.08;48.72;;;;;;;-0.29;100.00;100036.03;5045099;28;20029;-72
2023/11/30 08:48:00;;;;;;;64.32;51.08;;;;;;;-0.28;100.00;100035.22;5043136;28;20031;-67
2023/11/30 08:50:25;;;;;;;65.03;49.70;;;;;;;-0.23;100.00;100038.88;5044039;28;20377;-68
2023/11/30 08:52:50;;;;;;;63.72;50.00;;;;;;;-0.11;100.00;100046.22;5044139;28;20021;-72
2023/11/30 08:55:16;;;;;;;66.13;51.05;;;;;;;0.03;100.00;100049.28;5042694;28;20444;-70
2023/11/30 08:57:41;;;;;;;64.95;51.88;;;;;;;0.20;100.00;100049.84;5045348;28;20392;-69
2023/11/30 09:00:11;;;;;;;67.45;53.22;;;;;;;0.29;100.00;100047.56;5040716;28;20388;-72
2023/11/30 09:02:37;;;;;;;68.15;51.85;;;;;;;0.28;100.00;100046.69;5044229;28;20082;-67
2023/11/30 09:05:02;;;;;;;70.80;52.00;;;;;;;0.31;100.00;100038.97;5042121;28;20046;-71
2023/11/30 09:07:28;;;;;;;67.65;52.22;;;;;;;0.51;100.00;100043.94;5043764;28;20048;-75
2023/11/30 09:09:53;;;;;;;72.72;52.65;;;;;;;0.59;100.00;100047.66;5043155;28;20112;-69
2023/11/30 09:12:18;;;;;;;63.72;49.28;;;;;;;0.60;100.00;100048.56;5042375;28;20542;-69
2023/11/30 09:14:44;;;;;;;56.25;45.63;;;;;;;0.65;100.00;100050.47;5044835;28;20126;-66
2023/11/30 09:17:09;;;;;;;53.45;43.45;;;;;;;0.62;100.00;100045.16;5040246;28;20041;-66
2023/11/30 09:19:34;;;;;;;66.75;55.85;;;;;;;0.60;100.00;100048.56;5044464;28;20021;-71
2023/11/30 09:22:00;;;;;;;88.20;77.00;;;;;;;0.74;100.00;100046.38;5008383;28;20124;-71
2023/11/30 09:24:25;;;;;;;58.08;49.72;;;;;;;0.86;100.00;100041.59;5043007;28;20030;-74
2023/11/30 09:26:51;;;;;;;50.22;41.58;;;;;;;1.01;100.00;100038.56;5043593;28;20021;-69
2023/11/30 09:29:17;;;;;;;52.55;44.28;;;;;;;1.12;100.00;100033.66;5042292;28;20029;-65
2023/11/30 09:31:42;;;;;;;49.22;40.03;;;;;;;1.18;100.00;100046.84;5044581;28;20029;-66
2023/11/30 09:34:09;;;;;;;46.38;37.80;;;;;;;1.34;100.00;100041.28;5037414;28;20060;-67
2023/11/30 09:36:36;;;;;;;47.05;37.35;;;;;;;1.49;100.00;100037.34;5044676;28;20123;-72
2023/11/30 09:39:02;;;;;;;42.83;34.50;;;;;;;1.64;100.00;100042.97;5041931;28;20528;-74
2023/11/30 09:41:28;;;;;;;41.97;33.75;;;;;;;1.75;100.00;100043.28;5043272;28;20120;-66
2023/11/30 09:43:54;;;;;;;39.30;30.73;;;;;;;1.72;100.00;100040.59;5043026;28;20029;-70
2023/11/30 09:46:19;;;;;;;40.15;32.15;;;;;;;1.89;100.00;100038.41;5041817;28;20119;-69
2023/11/30 09:48:45;;;;;;;40.28;32.60;;;;;;;1.95;100.00;100029.88;5044193;28;20029;-72
2023/11/30 09:51:16;;;;;;;39.65;30.55;;;;;;;1.98;100.00;100036.06;5041202;28;20033;-70
2023/11/30 09:53:41;;;;;;;39.70;30.60;;;;;;;2.06;100.00;100034.53;5037379;28;20022;-69
2023/11/30 09:56:07;;;;;;;40.20;30.77;;;;;;;2.25;100.00;100032.41;5044045;28;20138;-71
2023/11/30 09:58:33;;;;;;;39.53;30.73;;;;;;;2.19;100.00;100037.47;5041693;28;20083;-66
2023/11/30 10:01:00;;;;;;;38.58;29.65;;;;;;;2.05;100.00;100045.81;5042929;28;20033;-66
2023/11/30 10:03:33;;;;;;;39.47;30.77;;;;;;;1.97;100.00;100046.47;5042727;28;20034;-71
2023/11/30 10:05:58;;;;;;;;;;;;;;;2.22;100.00;100047.97;5043251;28;20053;-67
2023/11/30 10:08:24;;;;;;;39.67;30.10;;;;;;;2.00;100.00;100036.97;5042647;28;20394;-74
2023/11/30 10:10:49;;;;;;;43.28;32.17;;;;;;;1.95;100.00;100038.56;5041607;28;20076;-71
2023/11/30 10:13:14;;;;;;;40.15;29.85;;;;;;;2.03;100.00;100037.06;5044153;28;20079;-75
2023/11/30 10:15:40;;;;;;;41.97;31.02;;;;;;;2.16;100.00;100034.78;5040637;28;20562;-66
2023/11/30 10:18:05;;;;;;;42.97;31.65;;;;;;;2.31;100.00;100032.53;5043722;28;20033;-65
2023/11/30 10:20:30;;;;;;;43.67;33.20;;;;;;;2.40;100.00;100038.00;5042586;28;20071;-66
2023/11/30 10:22:56;;;;;;;42.60;35.20;;;;;;;2.58;100.00;100036.69;5046514;28;20469;-66
2023/11/30 10:25:21;;;;;;;42.53;32.33;;;;;;;2.65;100.00;100033.38;5046796;28;20124;-72
2023/11/30 10:27:51;;;;;;;41.85;31.38;;;;;;;2.68;100.00;100028.22;5045277;28;20038;-67
2023/11/30 10:30:18;;;;;;;41.80;31.10;;;;;;;2.82;100.00;100032.88;5047679;28;20108;-67
2023/11/30 10:32:44;;;;;;;42.15;31.95;;;;;;;2.88;100.00;100027.78;5044949;28;20388;-67
2023/11/30 10:35:14;;;;;;;42.17;31.45;;;;;;;2.81;100.00;100028.50;5048163;28;20025;-69
2023/11/30 10:37:46;;;;;;;40.50;30.88;;;;;;;2.95;100.00;100027.06;5040571;28;20028;-71
2023/11/30 10:40:12;;;;;;;43.58;31.58;;;;;;;3.14;100.00;100031.84;5040886;28;20091;-71
2023/11/30 10:42:41;;;;;;;40.75;31.25;;;;;;;3.31;100.00;100032.22;5048269;28;20021;-67
2023/11/30 10:45:08;;;;;;;39.20;30.13;;;;;;;3.47;100.00;100035.16;5044625;28;20099;-69
2023/11/30 10:47:38;;;;;;;37.45;29.70;;;;;;;3.74;100.00;100026.06;5046951;28;20120;-67
2023/11/30 10:50:05;;;;;;;37.75;29.25;;;;;;;4.04;100.00;100023.16;5044868;28;20033;-71
2023/11/30 10:52:32;;;;;;;37.00;28.88;;;;;;;4.25;100.00;100024.38;5046879;28;20041;-69
2023/11/30 10:55:09;;;;;;;37.70;28.00;;;;;;;4.49;100.00;100030.00;5045868;28;20401;-67
2023/11/30 10:57:34;;;;;;;37.85;28.98;;;;;;;4.48;100.00;100022.13;5046974;28;20029;-71